x

Sentry Shoal (46131) Wave Buoy

5:00pm - Tue 26th Jul 2016 All times are PDT. -7 hours from GMT.

  • Sig Wave height 0.7ft
  • Peak Period 3s
  • Wind
    13mph, 16mph gusts
  • Sea Temp 68°f
  • 空気 Temp 71°f
  • Sea Pressure 1018.7mb
  • Sentry Shoal
  • Sentry Shoal

More Historic Weather Station data

Upgrade to MSW Pro to gain access to the past 30 days of data for over 8000 Wavebouys and Weather Stations around the globe.

Join Pro

Comparision Forecast

View Surf forecast
   
Tue 07/26 5:00pm 0.7ft 3s 13 16 mph 1018.7mb 68f 71f
4:00pm 0.7ft 2s 7 9 mph 1019.2mb 68f 70f
3:00pm 0.3ft 2s 2 4 mph 1019.7mb 67f 69f
2:00pm 0.3ft 2s 4 7 mph 1020mb 66f 67f
1:00pm 0.3ft 3s 7
mph
1020.1mb 65f 66f
12:00pm 0.7ft 2s 9
mph
1020.2mb 65f 65f
11:00am 1ft 2s 9 11 mph 1020.4mb 65f 64f
10:00am 1.3ft 2s 13 16 mph 1020.5mb 65f 63f
9:00am 1.6ft 3s 13 18 mph 1020.6mb 65f 62f
8:00am 2ft 3s 13 16 mph 1020.4mb 66f 62f
7:00am 2ft 3s 18 20 mph 1019.8mb 66f 61f
6:00am 2ft 3s 18 22 mph 1019.4mb 66f 61f
4:00am 2ft 3s 22 25 mph 1018.3mb 66f 63f
3:00am 1.6ft 3s 22 27 mph 1017.9mb 66f 63f
2:00am 2ft 3s 22 27 mph 1017.4mb 67f 65f
1:00am 2ft 3s 20 25 mph 1017.2mb 67f 67f
12:00am 1.6ft 3s 20 25 mph 1016.8mb 69f 68f
Mon 07/25 11:00pm 1.3ft 3s 16 18 mph 1016.8mb 70f 70f
10:00pm 1.3ft 2s 20 25 mph 1016.5mb 72f 71f
9:00pm 0.3ft 2s 13 16 mph 1016.1mb 72f 73f
8:00pm 0.3ft 2s 4 11 mph 1015.8mb 74f 75f
7:00pm 0.3ft 2s 4
mph
1015.7mb 75f 76f
6:00pm 0.3ft 3s  -  2 mph 1016mb 74f 78f
5:00pm 0.3ft 3s 2
mph
1016.5mb 75f 76f
4:00pm 0.3ft 2s 2
mph
1016.9mb 70f 75f
3:00pm 0.3ft 4s 2
mph
1017.3mb 69f 72f
2:00pm 0.3ft 4s 7
mph
1017.6mb 68f 70f
1:00pm 0.3ft 2s 7
mph
1017.8mb 68f 69f
12:00pm 0.7ft 2s 9 11 mph 1018mb 67f 67f
11:00am 1ft 2s 11 13 mph 1018.4mb 67f 66f
10:00am 1ft 2s 11 13 mph 1018.3mb 67f 65f
9:00am 1ft 3s 13 18 mph 1018.2mb 67f 65f
8:00am 1.3ft 2s 16 18 mph 1017.8mb 67f 65f
7:00am 1ft 2s 16 18 mph 1017.7mb 68f 65f
6:00am 1.3ft 3s 16 18 mph 1017.4mb 68f 65f
5:00am 1.3ft 3s 16 20 mph 1017.2mb 69f 65f
4:00am 1.6ft 3s 13 18 mph 1017.1mb 68f 66f
3:00am 1.3ft 3s 16 18 mph 1016.8mb 69f 67f
2:00am 1.3ft 3s 16 18 mph 1016.6mb 69f 67f
1:00am 1ft 3s 13 16 mph 1016.5mb 69f 68f
12:00am 0.7ft 2s 11 13 mph 1016.6mb 69f 69f
Sun 07/24 11:00pm 0.7ft 2s 13 18 mph 1016.4mb 70f 70f
10:00pm 0.7ft 7s 11 13 mph 1016.3mb 71f 72f
9:00pm 0.3ft 2s 13 16 mph 1016.3mb 71f 73f
8:00pm 0.3ft 2s 11 13 mph 1016.4mb 73f 74f
7:00pm 0.3ft 2s  -  2 mph 1016.7mb 73f 74f
6:00pm 0.3ft 2s  -  mph 1017mb 72f 78f
5:00pm 0.3ft 2s 2 4 mph 1017.6mb 72f 74f
4:00pm 0.3ft 2s 2 4 mph 1018.3mb 72f 73f
3:00pm 0.3ft 2s 4
mph
1018.7mb 71f 71f
2:00pm 0.3ft 2s 2 4 mph 1019.3mb 71f 70f
1:00pm 0.3ft 5s 2
mph
1019.8mb 71f 68f
12:00pm 0.3ft 4s 2 4 mph 1020.2mb 70f 67f
11:00am 0.3ft 4s 4 7 mph 1020.3mb 70f 66f
10:00am 0.3ft 6s 4
mph
1020.7mb 69f 65f
9:00am 0.3ft 6s 7
mph
1021mb 69f 64f
8:00am 0.3ft 2s 7
mph
1020.9mb 69f 63f
7:00am 0.3ft 2s 7 9 mph 1020.8mb 68f 62f
6:00am 0.3ft 2s 7
mph
1020.9mb 68f 62f
5:00am 0.3ft 2s 9
mph
1020.9mb 68f 62f
4:00am 0.3ft 2s 7 9 mph 1020.9mb 68f 63f
3:00am 0.3ft 5s 7 9 mph 1021.3mb 68f 64f
2:00am 0.7ft 2s 4 7 mph 1021.6mb 68f 63f
1:00am 0.3ft 2s  -  mph 1021.9mb 69f 66f
12:00am 0.3ft 2s 7 9 mph 1021.8mb 69f 67f
Sat 07/23 11:00pm 0.3ft 2s 9
mph
1021.8mb 68f 68f
10:00pm 0.3ft 2s 7 9 mph 1022mb 69f 68f
9:00pm 0.3ft 3s 7 9 mph 1021.7mb 70f 68f
8:00pm 0.3ft 3s 4
mph
1021.8mb 70f 70f
7:00pm 0.3ft 2s 4 7 mph 1022mb 70f 69f
6:00pm 0.3ft 4s 7
mph
1022.4mb 71f 69f
5:00pm 0.3ft 2s 7
mph
1023.1mb 71f 69f
4:00pm 0.3ft 3s 9
mph
1023.6mb 71f 68f
3:00pm 0.3ft 2s 7 9 mph 1023.9mb 71f 67f
2:00pm 0.3ft 3s 7 9 mph 1024.1mb 71f 67f
1:00pm 0.3ft 2s 4 7 mph 1024.3mb 71f 66f
12:00pm 0.3ft 2s  -  2 mph 1024.4mb 70f 66f
11:00am 0.3ft 2s 2 4 mph 1024.2mb 69f 64f
10:00am 0.3ft 2s 4 7 mph 1024.3mb 68f 63f
9:00am 0.7ft 2s 9 11 mph 1024.1mb 68f 63f
8:00am 0.7ft 2s 9 11 mph 1023.8mb 67f 62f
7:00am 0.3ft 2s 9 11 mph 1023.6mb 66f 62f
6:00am 0.7ft 2s 9 11 mph 1023.2mb 66f 62f
5:00am 0.7ft 2s 9 11 mph 1023.3mb 67f 62f
4:00am 0.7ft 3s 9
mph
1023.3mb 67f 63f
3:00am 1ft 3s 9 11 mph 1023.3mb 67f 63f
2:00am 1ft 2s 11 13 mph 1023.4mb 67f 63f